createdAt,value
2017-10-03T00:01:14.406Z,20.799999999999997
2017-10-03T00:03:14.590Z,20.799999999999997
2017-10-03T00:05:14.663Z,20.799999999999997
2017-10-03T00:07:14.793Z,20.799999999999997
2017-10-03T00:09:14.953Z,20.799999999999997
2017-10-03T00:11:15.043Z,20.799999999999997
2017-10-03T00:13:15.157Z,20.799999999999997
2017-10-03T00:15:15.294Z,20.799999999999997
2017-10-03T00:17:15.513Z,20.799999999999997
2017-10-03T00:19:15.696Z,20.799999999999997
2017-10-03T00:21:15.761Z,20.799999999999997
2017-10-03T00:23:15.893Z,20.799999999999997
2017-10-03T00:25:16.037Z,20.799999999999997
2017-10-03T00:27:16.173Z,20.799999999999997
2017-10-03T00:29:16.273Z,20.799999999999997
2017-10-03T00:31:16.401Z,20.799999999999997
2017-10-03T00:33:16.614Z,20.799999999999997
2017-10-03T00:35:16.692Z,20.799999999999997
2017-10-03T00:37:16.841Z,20.799999999999997
2017-10-03T00:39:16.978Z,20.799999999999997
2017-10-03T00:41:17.057Z,20.799999999999997
2017-10-03T00:43:17.239Z,20.799999999999997
2017-10-03T00:45:17.337Z,20.799999999999997
2017-10-03T00:47:17.483Z,20.799999999999997
2017-10-03T00:49:17.616Z,20.799999999999997
2017-10-03T00:51:17.752Z,20.799999999999997
2017-10-03T00:53:17.913Z,19.700000000000003
2017-10-03T00:55:18.002Z,21.299999999999997
2017-10-03T00:57:18.118Z,20.799999999999997
2017-10-03T00:59:18.285Z,20.799999999999997
2017-10-03T01:01:18.372Z,20.799999999999997
2017-10-03T01:03:18.673Z,20.799999999999997
2017-10-03T01:05:18.637Z,20.799999999999997
2017-10-03T01:07:18.777Z,20.799999999999997
2017-10-03T01:09:18.922Z,20.799999999999997
2017-10-03T01:11:19.040Z,20.799999999999997
2017-10-03T01:13:19.312Z,20.200000000000003
2017-10-03T01:15:19.312Z,20.799999999999997
2017-10-03T01:17:19.447Z,20.799999999999997
2017-10-03T01:19:19.587Z,20.799999999999997
2017-10-03T01:21:19.677Z,20.799999999999997
2017-10-03T01:23:19.812Z,20.799999999999997
2017-10-03T01:25:20.007Z,20.200000000000003
2017-10-03T01:27:20.064Z,20.799999999999997
2017-10-03T01:29:20.275Z,20.799999999999997
2017-10-03T01:31:20.304Z,20.200000000000003
2017-10-03T01:33:20.652Z,20.799999999999997
2017-10-03T01:35:20.772Z,20.799999999999997
2017-10-03T01:37:20.840Z,20.799999999999997
2017-10-03T01:39:20.992Z,20.799999999999997
2017-10-03T01:41:21.157Z,20.799999999999997
2017-10-03T01:43:21.240Z,20.799999999999997
2017-10-03T01:45:21.374Z,20.200000000000003
2017-10-03T01:47:21.582Z,20.799999999999997
2017-10-03T01:49:21.647Z,20.200000000000003
2017-10-03T01:51:22.069Z,20.799999999999997
2017-10-03T01:53:21.978Z,20.799999999999997
2017-10-03T01:55:22.075Z,20.799999999999997
2017-10-03T01:57:22.199Z,20.799999999999997
2017-10-03T01:59:22.339Z,20.799999999999997
2017-10-03T02:01:22.432Z,20.200000000000003
2017-10-03T02:03:22.601Z,20.799999999999997
2017-10-03T02:05:22.687Z,20.799999999999997
2017-10-03T02:07:22.829Z,20.200000000000003
2017-10-03T02:09:22.919Z,20.200000000000003
2017-10-03T02:11:23.043Z,20.799999999999997
2017-10-03T02:13:23.151Z,20.799999999999997
2017-10-03T02:15:23.302Z,20.200000000000003
2017-10-03T02:17:23.433Z,20.799999999999997
2017-10-03T02:19:24.350Z,20.799999999999997
2017-10-03T02:21:23.635Z,20.200000000000003
2017-10-03T02:23:23.774Z,20.799999999999997
2017-10-03T02:25:23.982Z,20.200000000000003
2017-10-03T02:27:24.021Z,20.200000000000003
2017-10-03T02:29:24.158Z,20.799999999999997
2017-10-03T02:31:24.443Z,20.200000000000003
2017-10-03T02:33:24.473Z,20.799999999999997
2017-10-03T02:35:24.655Z,20.200000000000003
2017-10-03T02:37:24.750Z,20.200000000000003
2017-10-03T02:39:25.764Z,20.799999999999997
2017-10-03T02:41:25.008Z,20.799999999999997
2017-10-03T02:43:25.151Z,20.200000000000003
2017-10-03T02:45:25.236Z,20.799999999999997
2017-10-03T02:47:25.376Z,20.799999999999997
2017-10-03T02:49:25.844Z,20.799999999999997
2017-10-03T02:51:25.628Z,20.799999999999997
2017-10-03T02:53:25.813Z,20.799999999999997
2017-10-03T02:55:25.874Z,20.799999999999997
2017-10-03T02:57:26.024Z,20.200000000000003
2017-10-03T02:59:26.119Z,20.200000000000003
2017-10-03T03:01:26.279Z,20.799999999999997
2017-10-03T03:03:26.430Z,19.700000000000003
2017-10-03T03:05:26.506Z,20.799999999999997
2017-10-03T03:07:28.281Z,20.200000000000003
2017-10-03T03:09:26.831Z,20.799999999999997
2017-10-03T03:11:26.967Z,19.700000000000003
2017-10-03T03:13:27.179Z,20.799999999999997
2017-10-03T03:15:27.311Z,20.200000000000003
2017-10-03T03:17:27.473Z,20.200000000000003
2017-10-03T03:19:27.632Z,19.700000000000003
2017-10-03T03:21:27.715Z,19.700000000000003
2017-10-03T03:23:27.858Z,19.700000000000003
2017-10-03T03:25:28.017Z,20.200000000000003
2017-10-03T03:27:28.150Z,20.200000000000003
2017-10-03T03:29:28.270Z,19.700000000000003
2017-10-03T03:31:28.391Z,19.700000000000003
2017-10-03T03:33:28.535Z,20.200000000000003
2017-10-03T03:35:28.726Z,20.200000000000003
2017-10-03T03:37:28.813Z,19.700000000000003
2017-10-03T03:39:28.937Z,19.700000000000003
2017-10-03T03:41:29.075Z,19.700000000000003
2017-10-03T03:43:29.269Z,20.799999999999997
2017-10-03T03:45:29.419Z,20.200000000000003
2017-10-03T03:47:29.580Z,20.200000000000003
2017-10-03T03:49:29.913Z,19.700000000000003
2017-10-03T03:51:29.809Z,19.700000000000003
2017-10-03T03:53:29.959Z,19.700000000000003
2017-10-03T03:55:30.096Z,20.200000000000003
2017-10-03T03:57:30.217Z,20.799999999999997
2017-10-03T03:59:30.363Z,20.799999999999997
2017-10-03T04:01:30.507Z,19.700000000000003
2017-10-03T04:03:30.626Z,19.700000000000003
2017-10-03T04:05:30.828Z,19.700000000000003
2017-10-03T04:07:30.923Z,19.700000000000003
2017-10-03T04:09:31.103Z,20.200000000000003
2017-10-03T04:11:31.354Z,19.700000000000003
2017-10-03T04:13:31.516Z,19.700000000000003
2017-10-03T04:15:31.622Z,20.799999999999997
2017-10-03T04:17:31.772Z,19.700000000000003
2017-10-03T04:19:31.931Z,20.799999999999997
2017-10-03T04:21:32.024Z,20.200000000000003
2017-10-03T04:23:32.158Z,20.799999999999997
2017-10-03T04:25:32.269Z,20.799999999999997
2017-10-03T04:27:32.440Z,20.799999999999997
2017-10-03T04:29:32.687Z,20.799999999999997
2017-10-03T04:31:32.771Z,19.700000000000003
2017-10-03T04:33:32.924Z,19.700000000000003
2017-10-03T04:35:33.106Z,20.799999999999997
2017-10-03T04:37:33.155Z,20.799999999999997
2017-10-03T04:39:33.273Z,20.799999999999997
2017-10-03T04:41:33.392Z,20.799999999999997
2017-10-03T04:43:33.982Z,20.799999999999997
2017-10-03T04:45:33.647Z,19.700000000000003
2017-10-03T04:47:33.798Z,20.200000000000003
2017-10-03T04:49:33.932Z,20.799999999999997
2017-10-03T04:51:34.370Z,20.799999999999997
2017-10-03T04:53:34.226Z,20.200000000000003
2017-10-03T04:55:34.315Z,20.799999999999997
2017-10-03T04:57:34.421Z,19.700000000000003
2017-10-03T04:59:34.650Z,20.799999999999997
2017-10-03T05:01:34.711Z,20.200000000000003
2017-10-03T05:03:34.836Z,20.200000000000003
2017-10-03T05:05:35.056Z,19.700000000000003
2017-10-03T05:07:35.088Z,19.700000000000003
2017-10-03T05:09:35.273Z,20.200000000000003
2017-10-03T05:11:36.961Z,20.799999999999997
2017-10-03T05:13:35.957Z,20.799999999999997
2017-10-03T05:15:36.025Z,20.200000000000003
2017-10-03T05:17:36.164Z,20.200000000000003
2017-10-03T05:19:36.275Z,19.700000000000003
2017-10-03T05:21:36.381Z,19.700000000000003
2017-10-03T05:23:36.513Z,20.799999999999997
2017-10-03T05:25:36.842Z,19.700000000000003
2017-10-03T05:27:36.978Z,19.700000000000003
2017-10-03T05:29:37.145Z,20.200000000000003
2017-10-03T05:31:37.193Z,20.200000000000003
2017-10-03T05:33:37.334Z,19.700000000000003
2017-10-03T05:35:37.479Z,20.799999999999997
2017-10-03T05:37:37.572Z,20.799999999999997
2017-10-03T05:39:37.945Z,19.700000000000003
2017-10-03T05:41:37.811Z,20.200000000000003
2017-10-03T05:43:37.952Z,19.700000000000003
2017-10-03T05:45:38.111Z,20.200000000000003
2017-10-03T05:47:38.214Z,19.700000000000003
2017-10-03T05:49:38.322Z,20.200000000000003
2017-10-03T05:51:38.466Z,19.700000000000003
2017-10-03T05:53:38.590Z,20.200000000000003
2017-10-03T05:55:38.753Z,19.700000000000003
2017-10-03T05:57:38.892Z,19.700000000000003
2017-10-03T05:59:38.980Z,19.700000000000003
2017-10-03T06:01:39.134Z,20.799999999999997
2017-10-03T06:03:39.265Z,20.799999999999997
2017-10-03T06:05:39.377Z,20.200000000000003
2017-10-03T06:07:39.520Z,19.700000000000003
2017-10-03T06:09:39.696Z,19.700000000000003
2017-10-03T06:11:39.751Z,20.200000000000003
2017-10-03T06:13:39.899Z,19.700000000000003
2017-10-03T06:15:39.999Z,19.700000000000003
2017-10-03T06:17:40.182Z,19.700000000000003
2017-10-03T06:19:40.219Z,19.700000000000003
2017-10-03T06:21:40.385Z,19.200000000000003
2017-10-03T06:23:40.583Z,20.200000000000003
2017-10-03T06:25:40.566Z,19.700000000000003
2017-10-03T06:27:40.712Z,19.700000000000003
2017-10-03T06:29:40.814Z,19.700000000000003
2017-10-03T06:31:40.935Z,19.700000000000003
2017-10-03T06:33:41.077Z,19.700000000000003
2017-10-03T06:35:41.217Z,19.700000000000003
2017-10-03T06:37:41.300Z,19.700000000000003
2017-10-03T06:39:41.465Z,19.700000000000003
2017-10-03T06:41:41.599Z,19.700000000000003
2017-10-03T06:43:41.682Z,19.700000000000003
2017-10-03T06:45:41.774Z,19.700000000000003
2017-10-03T06:47:42.036Z,19.200000000000003
2017-10-03T06:49:42.027Z,19.700000000000003
2017-10-03T06:51:42.224Z,20.200000000000003
2017-10-03T06:53:42.320Z,19.700000000000003
2017-10-03T06:55:42.431Z,19.700000000000003
2017-10-03T06:57:42.636Z,19.700000000000003
2017-10-03T06:59:42.685Z,19.700000000000003
2017-10-03T07:01:42.902Z,19.700000000000003
2017-10-03T07:03:42.950Z,19.700000000000003
2017-10-03T07:05:43.104Z,20.200000000000003
2017-10-03T07:07:43.372Z,19.200000000000003
2017-10-03T07:09:43.297Z,20.200000000000003
2017-10-03T07:11:43.442Z,19.700000000000003
2017-10-03T07:13:43.582Z,20.200000000000003
2017-10-03T07:15:43.674Z,20.200000000000003
2017-10-03T07:17:43.827Z,20.799999999999997
2017-10-03T07:19:44.016Z,20.799999999999997
2017-10-03T07:21:44.084Z,20.200000000000003
2017-10-03T07:23:44.207Z,19.700000000000003
2017-10-03T07:25:44.344Z,20.200000000000003
2017-10-03T07:27:44.451Z,19.700000000000003
2017-10-03T07:29:44.599Z,19.700000000000003
2017-10-03T07:31:44.713Z,20.200000000000003
2017-10-03T07:33:44.823Z,20.799999999999997
2017-10-03T07:35:44.970Z,20.200000000000003
2017-10-03T07:37:45.182Z,20.799999999999997
2017-10-03T07:39:45.316Z,20.200000000000003
2017-10-03T07:41:45.405Z,19.700000000000003
2017-10-03T07:43:45.688Z,19.700000000000003
2017-10-03T07:45:45.563Z,20.799999999999997
2017-10-03T07:47:45.706Z,20.200000000000003
2017-10-03T07:49:45.823Z,20.799999999999997
2017-10-03T07:51:46.122Z,20.799999999999997
2017-10-03T07:53:46.216Z,20.799999999999997
2017-10-03T07:55:46.653Z,20.799999999999997
2017-10-03T07:57:46.473Z,20.799999999999997
2017-10-03T07:59:46.573Z,20.799999999999997
2017-10-03T08:01:46.766Z,20.799999999999997
2017-10-03T08:03:47.223Z,20.799999999999997
2017-10-03T08:05:46.969Z,20.799999999999997
2017-10-03T08:07:47.167Z,20.799999999999997
2017-10-03T08:09:47.260Z,21.299999999999997
2017-10-03T08:11:47.453Z,20.799999999999997
2017-10-03T08:13:47.510Z,20.799999999999997
2017-10-03T08:15:47.633Z,21.299999999999997
2017-10-03T08:17:47.763Z,20.799999999999997
2017-10-03T08:19:47.910Z,20.799999999999997
2017-10-03T08:21:48.036Z,20.799999999999997
2017-10-03T08:23:48.156Z,21.299999999999997
2017-10-03T08:25:48.289Z,21.299999999999997
2017-10-03T08:27:48.435Z,21.299999999999997
2017-10-03T08:29:48.557Z,21.299999999999997
2017-10-03T08:31:48.683Z,20.799999999999997
2017-10-03T08:33:48.828Z,21.299999999999997
2017-10-03T08:35:49.017Z,21.9
2017-10-03T08:37:49.141Z,21.299999999999997
2017-10-03T08:39:49.270Z,20.799999999999997
2017-10-03T08:41:49.425Z,22.4
2017-10-03T08:43:49.521Z,21.9
2017-10-03T08:45:49.702Z,21.9
2017-10-03T08:47:49.825Z,21.9
2017-10-03T08:49:49.950Z,21.9
2017-10-03T08:51:50.179Z,21.9
2017-10-03T08:53:50.256Z,21.9
2017-10-03T08:55:50.373Z,21.9
2017-10-03T08:57:50.518Z,21.299999999999997
2017-10-03T08:59:50.686Z,22.4
2017-10-03T09:01:50.825Z,21.9
2017-10-03T09:03:50.931Z,21.9
2017-10-03T09:05:51.073Z,21.9
2017-10-03T09:07:51.183Z,22.4
2017-10-03T09:09:51.291Z,21.9
2017-10-03T09:11:51.435Z,21.9
2017-10-03T09:13:51.622Z,21.9
2017-10-03T09:15:51.731Z,21.9
2017-10-03T09:17:51.833Z,22.4
2017-10-03T09:19:51.972Z,21.299999999999997
2017-10-03T09:21:52.131Z,21.9
2017-10-03T09:23:52.264Z,22.9
2017-10-03T09:25:52.396Z,22.4
2017-10-03T09:27:52.550Z,22.9
2017-10-03T09:29:52.637Z,22.9
2017-10-03T09:31:53.078Z,22.4
2017-10-03T09:33:52.926Z,22.9
2017-10-03T09:35:53.072Z,22.4
2017-10-03T09:37:53.182Z,22.9
2017-10-03T09:39:53.312Z,22.9
2017-10-03T09:41:53.768Z,23.5
2017-10-03T09:43:53.586Z,22.9
2017-10-03T09:45:53.702Z,22.9
2017-10-03T09:47:53.854Z,22.9
2017-10-03T09:49:53.946Z,22.9
2017-10-03T09:51:54.073Z,22.9
2017-10-03T09:53:54.444Z,23.5
2017-10-03T09:55:54.452Z,22.9
2017-10-03T09:57:54.599Z,22.9
2017-10-03T09:59:54.804Z,22.9
2017-10-03T10:01:54.968Z,22.4
2017-10-03T10:03:55.069Z,23.5
2017-10-03T10:05:55.197Z,23.5
2017-10-03T10:07:55.448Z,22.9
2017-10-03T10:09:55.440Z,22.9
2017-10-03T10:11:55.727Z,23.5
2017-10-03T10:13:55.821Z,22.9
2017-10-03T10:15:55.945Z,23.5
2017-10-03T10:17:56.143Z,23.5
2017-10-03T10:19:56.203Z,22.9
2017-10-03T10:21:56.356Z,23.5
2017-10-03T10:23:56.492Z,22.9
2017-10-03T10:25:56.601Z,22.9
2017-10-03T10:27:56.715Z,22.9
2017-10-03T10:29:56.871Z,23.5
2017-10-03T10:31:56.997Z,22.9
2017-10-03T10:33:57.137Z,23.5
2017-10-03T10:35:57.227Z,22.9
2017-10-03T10:37:57.446Z,23.5
2017-10-03T10:39:57.640Z,22.9
2017-10-03T10:41:57.762Z,22.9
2017-10-03T10:43:57.894Z,22.9
2017-10-03T10:45:58.105Z,24
2017-10-03T10:47:58.359Z,23.5
2017-10-03T10:49:58.414Z,22.9
2017-10-03T10:51:58.501Z,23.5
2017-10-03T10:53:58.660Z,22.9
2017-10-03T10:55:58.793Z,23.5
2017-10-03T10:57:58.875Z,22.9
2017-10-03T10:59:59.021Z,23.5
2017-10-03T11:01:59.133Z,22.9
2017-10-03T11:03:59.366Z,24
2017-10-03T11:05:59.433Z,23.5
2017-10-03T11:07:59.584Z,23.5
2017-10-03T11:09:59.692Z,23.5
2017-10-03T11:11:59.973Z,23.5
2017-10-03T11:14:00.064Z,23.5
2017-10-03T11:16:00.286Z,23.5
2017-10-03T11:18:00.322Z,23.5
2017-10-03T11:20:00.508Z,23.5
2017-10-03T11:22:00.612Z,22.9
2017-10-03T11:24:00.727Z,24
2017-10-03T11:26:01.042Z,22.9
2017-10-03T11:28:01.005Z,22.9
2017-10-03T11:30:01.125Z,23.5
2017-10-03T11:32:01.565Z,23.5
2017-10-03T11:34:01.902Z,22.9
2017-10-03T11:36:01.987Z,22.9
2017-10-03T11:38:02.543Z,22.9
2017-10-03T11:40:02.562Z,22.9
2017-10-03T11:42:02.686Z,23.5
2017-10-03T11:44:02.963Z,23.5
2017-10-03T11:46:03.009Z,22.9
2017-10-03T11:48:03.124Z,22.9
2017-10-03T11:50:03.316Z,23.5
2017-10-03T11:52:03.408Z,23.5
2017-10-03T11:54:03.488Z,24
2017-10-03T11:56:03.651Z,24
2017-10-03T11:58:03.750Z,24
2017-10-03T12:00:03.860Z,24
2017-10-03T12:02:04.032Z,24
2017-10-03T12:04:04.927Z,24
2017-10-03T12:06:04.231Z,24
2017-10-03T12:08:04.370Z,24
2017-10-03T12:10:04.532Z,23.5
2017-10-03T12:12:04.625Z,22.9
2017-10-03T12:14:04.772Z,23.5
2017-10-03T12:16:04.886Z,23.5
2017-10-03T12:18:05.009Z,23.5
2017-10-03T12:20:05.136Z,24
2017-10-03T12:22:05.352Z,23.5
2017-10-03T12:24:05.425Z,22.9
2017-10-03T12:26:05.611Z,23.5
2017-10-03T12:28:05.973Z,24
2017-10-03T12:30:06.053Z,24
2017-10-03T12:32:06.152Z,24
2017-10-03T12:34:06.357Z,23.5
2017-10-03T12:36:06.573Z,23.5
2017-10-03T12:38:06.646Z,23.5
2017-10-03T12:40:08.100Z,23.5
2017-10-03T12:42:07.054Z,23.5
2017-10-03T12:44:07.189Z,23.5
2017-10-03T12:46:07.302Z,22.9
2017-10-03T12:48:07.424Z,24
2017-10-03T12:50:08.562Z,23.5
2017-10-03T12:52:07.812Z,22.9
2017-10-03T12:54:07.859Z,23.5
2017-10-03T12:56:08.046Z,23.5
2017-10-03T12:58:08.181Z,23.5
2017-10-03T13:00:08.295Z,23.5
2017-10-03T13:02:08.479Z,23.5
2017-10-03T13:04:08.631Z,22.9
2017-10-03T13:06:08.843Z,23.5
2017-10-03T13:08:08.926Z,23.5
2017-10-03T13:10:09.001Z,23.5
2017-10-03T13:12:09.143Z,22.9
2017-10-03T13:14:09.271Z,23.5
2017-10-03T13:16:09.411Z,23.5
2017-10-03T13:18:09.592Z,23.5
2017-10-03T13:20:09.724Z,23.5
2017-10-03T13:22:09.867Z,22.9
2017-10-03T13:24:10.842Z,23.5
2017-10-03T13:26:10.286Z,22.9
2017-10-03T13:28:10.413Z,22.9
2017-10-03T13:30:10.524Z,23.5
2017-10-03T13:32:10.807Z,22.9
2017-10-03T13:34:10.881Z,22.9
2017-10-03T13:36:11.033Z,22.9
2017-10-03T13:38:11.201Z,23.5
2017-10-03T13:40:11.347Z,23.5
2017-10-03T13:42:11.443Z,24
2017-10-03T13:44:11.811Z,23.5
2017-10-03T13:46:11.743Z,23.5
2017-10-03T13:48:11.891Z,24.5
2017-10-03T13:50:12.002Z,23.5
2017-10-03T13:52:12.163Z,24
2017-10-03T13:54:12.316Z,24
2017-10-03T13:56:12.493Z,23.5
2017-10-03T13:58:12.701Z,24
2017-10-03T14:00:13.023Z,24
2017-10-03T14:02:12.971Z,24
2017-10-03T14:04:13.082Z,23.5
2017-10-03T14:06:13.272Z,24
2017-10-03T14:08:13.469Z,23.5
2017-10-03T14:10:13.567Z,23.5
2017-10-03T14:12:13.720Z,24
2017-10-03T14:14:13.934Z,24
2017-10-03T14:16:14.019Z,24
2017-10-03T14:18:14.245Z,23.5
2017-10-03T14:20:14.287Z,24
2017-10-03T14:22:14.392Z,23.5
2017-10-03T14:24:14.542Z,24
2017-10-03T14:26:14.656Z,24
2017-10-03T14:28:14.782Z,24
2017-10-03T14:30:14.870Z,23.5
2017-10-03T14:32:15.040Z,24
2017-10-03T14:34:15.205Z,24
2017-10-03T14:36:15.367Z,23.5
2017-10-03T14:38:15.462Z,22.9
2017-10-03T14:40:15.582Z,23.5
2017-10-03T14:42:15.694Z,24
2017-10-03T14:44:15.849Z,23.5
2017-10-03T14:46:15.994Z,22.9
2017-10-03T14:48:16.080Z,22.9
2017-10-03T14:50:16.242Z,23.5
2017-10-03T14:52:16.436Z,23.5
2017-10-03T14:54:16.455Z,22.9
2017-10-03T14:56:16.577Z,23.5
2017-10-03T14:58:16.728Z,23.5
2017-10-03T15:00:16.857Z,23.5
2017-10-03T15:02:17.006Z,22.9
2017-10-03T15:04:17.309Z,23.5
2017-10-03T15:06:17.307Z,23.5
2017-10-03T15:08:17.383Z,23.5
2017-10-03T15:10:17.539Z,22.9
2017-10-03T15:12:17.683Z,23.5
2017-10-03T15:14:17.771Z,23.5
2017-10-03T15:16:17.916Z,22.9
2017-10-03T15:18:18.053Z,23.5
2017-10-03T15:20:18.182Z,23.5
2017-10-03T15:22:18.318Z,22.9
2017-10-03T15:24:18.460Z,22.9
2017-10-03T15:26:18.627Z,23.5
2017-10-03T15:28:18.686Z,23.5
2017-10-03T15:30:18.774Z,23.5
2017-10-03T15:32:19.088Z,22.9
2017-10-03T15:34:19.293Z,22.9
2017-10-03T15:36:19.455Z,22.9
2017-10-03T15:38:19.441Z,23.5
2017-10-03T15:40:19.696Z,22.9
2017-10-03T15:42:19.851Z,22.9
2017-10-03T15:44:19.942Z,22.9
2017-10-03T15:46:20.244Z,23.5
2017-10-03T15:48:20.334Z,23.5
2017-10-03T15:50:20.464Z,22.9
2017-10-03T15:52:20.601Z,22.9
2017-10-03T15:54:20.742Z,22.9
2017-10-03T15:56:20.834Z,22.9
2017-10-03T15:58:20.973Z,23.5
2017-10-03T16:00:21.292Z,23.5
2017-10-03T16:02:21.279Z,22.9
2017-10-03T16:04:21.400Z,22.9
2017-10-03T16:06:21.597Z,22.9
2017-10-03T16:08:21.629Z,22.9
2017-10-03T16:10:21.749Z,22.9
2017-10-03T16:12:21.891Z,22.9
2017-10-03T16:14:21.996Z,22.9
2017-10-03T16:16:22.155Z,22.9
2017-10-03T16:18:22.270Z,22.4
2017-10-03T16:20:22.525Z,22.9
2017-10-03T16:22:22.649Z,22.9
2017-10-03T16:24:22.755Z,22.9
2017-10-03T16:26:22.850Z,21.9
2017-10-03T16:28:22.992Z,22.9
2017-10-03T16:30:23.109Z,22.4
2017-10-03T16:32:23.221Z,22.4
2017-10-03T16:34:23.345Z,22.4
2017-10-03T16:36:23.484Z,22.9
2017-10-03T16:38:23.613Z,21.9
2017-10-03T16:40:23.700Z,21.9
2017-10-03T16:42:23.900Z,22.9
2017-10-03T16:44:23.978Z,21.9
2017-10-03T16:46:24.095Z,22.4
2017-10-03T16:48:24.222Z,21.9
2017-10-03T16:50:24.375Z,21.9
2017-10-03T16:52:24.513Z,21.9
2017-10-03T16:54:24.642Z,21.9
2017-10-03T16:56:24.767Z,22.9
2017-10-03T16:58:24.896Z,22.9
2017-10-03T17:00:25.055Z,22.4
2017-10-03T17:02:25.223Z,22.9
2017-10-03T17:04:25.590Z,21.9
2017-10-03T17:06:25.682Z,22.4
2017-10-03T17:08:25.965Z,21.9
2017-10-03T17:10:26.168Z,21.9
2017-10-03T17:12:26.084Z,22.9
2017-10-03T17:14:26.266Z,22.4
2017-10-03T17:16:26.403Z,22.4
2017-10-03T17:18:26.536Z,22.4
2017-10-03T17:20:26.681Z,22.9
2017-10-03T17:22:27.026Z,21.9
2017-10-03T17:24:27.132Z,21.9
2017-10-03T17:26:27.261Z,21.9
2017-10-03T17:28:27.751Z,21.9
2017-10-03T17:30:27.564Z,21.9
2017-10-03T17:32:27.778Z,21.9
2017-10-03T17:34:28.032Z,22.4
2017-10-03T17:36:28.034Z,21.9
2017-10-03T17:38:28.173Z,22.4
2017-10-03T17:40:28.324Z,22.9
2017-10-03T17:42:28.590Z,22.4
2017-10-03T17:44:28.588Z,21.9
2017-10-03T17:46:28.722Z,22.4
2017-10-03T17:48:28.863Z,21.9
2017-10-03T17:50:29.036Z,22.4
2017-10-03T17:52:29.176Z,21.9
2017-10-03T17:54:29.353Z,21.9
2017-10-03T17:56:29.465Z,22.4
2017-10-03T17:58:29.616Z,21.9
2017-10-03T18:00:29.741Z,22.4
2017-10-03T18:02:29.878Z,21.9
2017-10-03T18:04:30.020Z,22.9
2017-10-03T18:06:30.241Z,22.9
2017-10-03T18:08:30.465Z,21.9
2017-10-03T18:10:30.670Z,21.9
2017-10-03T18:12:30.826Z,22.4
2017-10-03T18:14:30.985Z,22.9
2017-10-03T18:16:31.110Z,22.9
2017-10-03T18:18:31.310Z,22.4
2017-10-03T18:20:31.427Z,21.9
2017-10-03T18:22:31.525Z,22.9
2017-10-03T18:24:31.995Z,22.4
2017-10-03T18:26:31.842Z,22.9
2017-10-03T18:28:31.983Z,21.9
2017-10-03T18:30:32.112Z,21.9
2017-10-03T18:32:32.247Z,21.9
2017-10-03T18:34:32.355Z,21.9
2017-10-03T18:36:32.537Z,21.9
2017-10-03T18:38:32.644Z,21.9
2017-10-03T18:40:32.764Z,21.9
2017-10-03T18:42:32.887Z,21.9
2017-10-03T18:44:33.075Z,22.4
2017-10-03T18:46:33.131Z,21.9
2017-10-03T18:48:33.255Z,21.9
2017-10-03T18:50:33.405Z,21.9
2017-10-03T18:52:33.579Z,21.9
2017-10-03T18:54:33.637Z,21.9
2017-10-03T18:56:33.802Z,21.9
2017-10-03T18:58:33.894Z,21.9
2017-10-03T19:00:34.071Z,21.9
2017-10-03T19:02:34.147Z,21.9
2017-10-03T19:04:34.333Z,21.299999999999997
2017-10-03T19:06:34.432Z,21.9
2017-10-03T19:08:34.577Z,21.9
2017-10-03T19:10:34.768Z,21.299999999999997
2017-10-03T19:12:34.815Z,21.9
2017-10-03T19:14:34.933Z,21.9
2017-10-03T19:16:35.135Z,21.299999999999997
2017-10-03T19:18:35.339Z,21.9
2017-10-03T19:20:35.273Z,21.9
2017-10-03T19:22:35.431Z,22.4
2017-10-03T19:24:35.545Z,21.9
2017-10-03T19:26:35.691Z,21.9
2017-10-03T19:28:35.812Z,21.9
2017-10-03T19:30:35.931Z,20.799999999999997
2017-10-03T19:32:36.060Z,20.799999999999997
2017-10-03T19:34:36.204Z,21.299999999999997
2017-10-03T19:36:36.542Z,21.299999999999997
2017-10-03T19:38:36.537Z,20.799999999999997
2017-10-03T19:40:36.682Z,21.9
2017-10-03T19:42:36.971Z,21.9
2017-10-03T19:44:37.194Z,21.299999999999997
2017-10-03T19:46:37.201Z,21.299999999999997
2017-10-03T19:48:37.320Z,21.299999999999997
2017-10-03T19:50:37.444Z,20.799999999999997
2017-10-03T19:52:37.649Z,20.799999999999997
2017-10-03T19:54:37.822Z,20.799999999999997
2017-10-03T19:56:37.916Z,20.799999999999997
2017-10-03T19:58:38.120Z,20.799999999999997
2017-10-03T20:00:38.453Z,20.799999999999997
2017-10-03T20:02:38.495Z,20.799999999999997
2017-10-03T20:04:38.570Z,20.799999999999997
2017-10-03T20:06:38.740Z,21.299999999999997
2017-10-03T20:08:38.997Z,21.299999999999997
2017-10-03T20:10:39.148Z,20.799999999999997
2017-10-03T20:12:39.338Z,20.799999999999997
2017-10-03T20:14:39.361Z,20.799999999999997
2017-10-03T20:16:39.470Z,20.799999999999997
2017-10-03T20:18:39.579Z,20.799999999999997
2017-10-03T20:20:39.789Z,20.799999999999997
2017-10-03T20:22:40.127Z,20.799999999999997
2017-10-03T20:24:40.170Z,20.799999999999997
2017-10-03T20:26:40.286Z,20.799999999999997
2017-10-03T20:28:40.478Z,20.799999999999997
2017-10-03T20:30:40.534Z,20.799999999999997
2017-10-03T20:32:40.630Z,20.799999999999997
2017-10-03T20:34:40.760Z,20.799999999999997
2017-10-03T20:36:41.101Z,20.799999999999997
2017-10-03T20:38:41.110Z,20.799999999999997
2017-10-03T20:40:41.481Z,20.799999999999997
2017-10-03T20:42:46.414Z,20.799999999999997
2017-10-03T20:44:41.664Z,20.799999999999997
2017-10-03T20:46:41.739Z,20.799999999999997
2017-10-03T20:48:41.851Z,20.799999999999997
2017-10-03T20:50:41.967Z,20.799999999999997
2017-10-03T20:52:42.137Z,20.799999999999997
2017-10-03T20:54:42.218Z,20.799999999999997
2017-10-03T20:56:42.370Z,20.799999999999997
2017-10-03T20:58:42.473Z,20.799999999999997
2017-10-03T21:00:42.908Z,20.799999999999997
2017-10-03T21:02:42.759Z,20.799999999999997
2017-10-03T21:04:42.881Z,20.799999999999997
2017-10-03T21:06:43.223Z,20.799999999999997
2017-10-03T21:08:43.107Z,20.799999999999997
2017-10-03T21:10:43.277Z,20.799999999999997
2017-10-03T21:12:43.386Z,20.799999999999997
2017-10-03T21:14:43.524Z,20.200000000000003
2017-10-03T21:16:43.660Z,20.799999999999997
2017-10-03T21:18:43.789Z,20.799999999999997
2017-10-03T21:20:44.021Z,20.799999999999997
2017-10-03T21:22:44.088Z,20.799999999999997
2017-10-03T21:24:44.244Z,20.799999999999997
2017-10-03T21:26:44.348Z,20.799999999999997
2017-10-03T21:28:44.522Z,20.799999999999997
2017-10-03T21:30:44.602Z,20.799999999999997
2017-10-03T21:32:44.903Z,20.799999999999997
2017-10-03T21:34:45.022Z,20.799999999999997
2017-10-03T21:36:46.007Z,20.799999999999997
2017-10-03T21:38:45.297Z,20.200000000000003